createdAt,value
2022-12-23T00:02:04.252Z,7.20
2022-12-23T00:04:31.300Z,6.70
2022-12-23T00:06:58.142Z,6.30
2022-12-23T00:09:24.945Z,6.57
2022-12-23T00:12:11.721Z,7.00
2022-12-23T00:14:56.924Z,6.15
2022-12-23T00:17:23.905Z,5.68
2022-12-23T00:19:50.747Z,5.30
2022-12-23T00:22:17.580Z,4.80
2022-12-23T00:24:44.413Z,5.20
2022-12-23T00:27:11.294Z,4.47
2022-12-23T00:29:38.134Z,4.15
2022-12-23T00:32:05.171Z,5.22
2022-12-23T00:34:32.043Z,4.78
2022-12-23T00:36:58.859Z,4.78
2022-12-23T00:39:44.411Z,5.28
2022-12-23T00:42:29.957Z,3.65
2022-12-23T00:45:15.844Z,4.05
2022-12-23T00:48:02.477Z,3.83
2022-12-23T00:50:30.020Z,3.92
2022-12-23T00:52:57.476Z,3.75
2022-12-23T00:55:24.841Z,4.00
2022-12-23T00:57:51.764Z,3.83
2022-12-23T01:00:19.705Z,3.97
2022-12-23T01:03:05.073Z,3.88
2022-12-23T01:05:37.995Z,3.17
2022-12-23T01:08:12.211Z,3.60
2022-12-23T01:10:40.420Z,2.90
2022-12-23T01:13:07.738Z,4.18
2022-12-23T01:15:34.802Z,3.22
2022-12-23T01:18:01.732Z,3.13
2022-12-23T01:20:28.650Z,3.28
2022-12-23T01:22:55.521Z,2.85
2022-12-23T01:25:22.564Z,3.97
2022-12-23T01:27:49.529Z,3.65
2022-12-23T01:30:16.571Z,3.65
2022-12-23T01:32:43.427Z,2.58
2022-12-23T01:35:10.319Z,3.15
2022-12-23T01:37:37.314Z,2.67
2022-12-23T01:40:04.896Z,3.50
2022-12-23T01:42:43.691Z,3.72
2022-12-23T01:45:14.818Z,3.07
2022-12-23T01:47:59.880Z,3.10
2022-12-23T01:50:31.574Z,2.97
2022-12-23T01:56:03.946Z,2.60
2022-12-23T01:58:32.682Z,3.35
2022-12-23T02:01:18.546Z,2.38
2022-12-23T02:03:46.219Z,2.25
2022-12-23T02:06:44.116Z,2.38
2022-12-23T02:09:19.493Z,2.45
2022-12-23T02:11:53.281Z,2.53
2022-12-23T02:15:00.459Z,2.65
2022-12-23T02:17:50.106Z,2.58
2022-12-23T02:20:23.100Z,2.85
2022-12-23T02:23:15.035Z,2.10
2022-12-23T02:26:16.855Z,2.80
2022-12-23T02:29:05.821Z,2.00
2022-12-23T02:32:01.024Z,2.10
2022-12-23T02:34:30.946Z,2.08
2022-12-23T02:37:05.395Z,2.03
2022-12-23T02:39:39.618Z,1.90
2022-12-23T02:42:17.755Z,2.45
2022-12-23T02:44:46.247Z,2.10
2022-12-23T02:47:20.365Z,2.10
2022-12-23T02:49:59.235Z,2.30
2022-12-23T02:52:37.759Z,3.63
2022-12-23T02:55:10.827Z,2.00
2022-12-23T02:57:40.433Z,2.53
2022-12-23T03:00:08.201Z,2.42
2022-12-23T03:02:37.491Z,1.98
2022-12-23T03:05:05.099Z,2.13
2022-12-23T03:07:39.268Z,2.78
2022-12-23T03:10:32.879Z,1.92
2022-12-23T03:13:53.673Z,1.77
2022-12-23T03:16:33.626Z,1.85
2022-12-23T03:19:20.672Z,2.83
2022-12-23T03:25:03.848Z,1.58
2022-12-23T03:27:35.023Z,1.52
2022-12-23T03:30:05.322Z,2.25
2022-12-23T03:32:41.583Z,1.60
2022-12-23T03:35:10.222Z,1.67
2022-12-23T03:37:39.046Z,2.05
2022-12-23T03:40:10.526Z,1.80
2022-12-23T03:42:39.338Z,2.47
2022-12-23T03:45:38.671Z,1.77
2022-12-23T03:48:12.905Z,2.53
2022-12-23T03:50:39.917Z,2.47
2022-12-23T03:53:12.135Z,2.10
2022-12-23T03:55:48.710Z,2.08
2022-12-23T03:58:38.152Z,1.52
2022-12-23T04:01:08.837Z,1.67
2022-12-23T04:03:46.124Z,1.98
2022-12-23T04:06:16.364Z,1.55
2022-12-23T04:08:44.277Z,1.88
2022-12-23T04:11:12.058Z,2.30
2022-12-23T04:13:39.060Z,1.77
2022-12-23T04:18:34.314Z,2.10
2022-12-23T04:21:01.220Z,1.55
2022-12-23T04:23:28.191Z,1.33
2022-12-23T04:25:55.100Z,1.42
2022-12-23T04:28:22.044Z,1.48
2022-12-23T04:30:48.970Z,1.60
2022-12-23T04:33:15.973Z,1.45
2022-12-23T04:35:42.840Z,1.48
2022-12-23T04:38:09.842Z,0.82
2022-12-23T04:40:36.804Z,1.48
2022-12-23T04:43:03.787Z,1.00
2022-12-23T04:45:30.734Z,1.05
2022-12-23T04:47:57.897Z,1.30
2022-12-23T04:50:24.902Z,1.30
2022-12-23T04:52:51.812Z,1.52
2022-12-23T04:55:18.810Z,1.33
2022-12-23T04:57:45.752Z,1.50
2022-12-23T05:00:13.193Z,2.67
2022-12-23T05:02:40.302Z,1.02
2022-12-23T05:05:07.570Z,1.52
2022-12-23T05:07:34.509Z,1.10
2022-12-23T05:10:02.166Z,1.08
2022-12-23T05:12:32.448Z,1.20
2022-12-23T05:14:59.357Z,1.48
2022-12-23T05:17:26.292Z,1.35
2022-12-23T05:19:53.157Z,2.17
2022-12-23T05:22:20.019Z,1.60
2022-12-23T05:24:47.442Z,1.52
2022-12-23T05:27:14.313Z,1.58
2022-12-23T05:29:41.179Z,1.58
2022-12-23T05:32:08.189Z,1.35
2022-12-23T05:34:35.136Z,1.50
2022-12-23T05:37:01.965Z,1.75
2022-12-23T05:39:28.816Z,1.70
2022-12-23T05:41:55.631Z,1.63
2022-12-23T05:44:22.468Z,1.48
2022-12-23T05:46:49.295Z,1.25
2022-12-23T05:49:16.213Z,1.25
2022-12-23T05:51:43.135Z,0.95
2022-12-23T05:54:10.107Z,2.20
2022-12-23T05:56:37.018Z,1.38
2022-12-23T05:59:04.037Z,1.27
2022-12-23T06:01:30.901Z,2.13
2022-12-23T06:03:57.974Z,1.08
2022-12-23T06:06:24.976Z,1.67
2022-12-23T06:08:57.458Z,2.03
2022-12-23T06:11:26.180Z,1.73
2022-12-23T06:16:20.385Z,1.10
2022-12-23T06:18:47.336Z,1.27
2022-12-23T06:21:14.289Z,1.40
2022-12-23T06:23:41.234Z,1.30
2022-12-23T06:26:08.435Z,1.70
2022-12-23T06:28:35.387Z,1.95
2022-12-23T06:31:02.326Z,1.42
2022-12-23T06:33:29.220Z,1.00
2022-12-23T06:35:56.212Z,1.98
2022-12-23T06:38:23.238Z,10.07
2022-12-23T06:40:50.395Z,12.68
2022-12-23T06:43:17.703Z,12.40
2022-12-23T06:45:48.455Z,11.65
2022-12-23T06:48:16.513Z,10.82
2022-12-23T06:50:43.661Z,9.10
2022-12-23T06:53:11.580Z,8.13
2022-12-23T06:55:39.176Z,8.95
2022-12-23T06:58:07.613Z,7.20
2022-12-23T07:00:35.962Z,6.60
2022-12-23T07:03:05.213Z,5.93
2022-12-23T07:05:36.920Z,5.75
2022-12-23T07:08:06.282Z,5.35
2022-12-23T07:10:36.193Z,4.88
2022-12-23T07:13:04.102Z,4.40
2022-12-23T07:15:32.365Z,5.53
2022-12-23T07:18:01.005Z,6.35
2022-12-23T07:20:28.804Z,16.67
2022-12-23T07:22:58.224Z,16.05
2022-12-23T07:25:26.347Z,14.50
2022-12-23T07:27:56.491Z,13.63
2022-12-23T07:30:25.041Z,10.98
2022-12-23T07:32:52.837Z,17.92
2022-12-23T07:35:21.003Z,23.48
2022-12-23T07:37:54.061Z,20.52
2022-12-23T07:40:23.061Z,17.65
2022-12-23T07:42:52.089Z,16.25
2022-12-23T07:45:20.458Z,14.20
2022-12-23T07:47:48.832Z,14.38
2022-12-23T07:50:17.508Z,11.80
2022-12-23T07:52:45.989Z,11.07
2022-12-23T07:55:15.017Z,10.27
2022-12-23T07:57:44.043Z,11.45
2022-12-23T08:00:14.406Z,9.20
2022-12-23T08:02:43.131Z,8.75
2022-12-23T08:05:12.760Z,7.83
2022-12-23T08:07:41.101Z,8.23
2022-12-23T08:10:09.546Z,7.78
2022-12-23T08:12:36.702Z,7.90
2022-12-23T08:15:04.219Z,7.50
2022-12-23T08:17:32.728Z,7.57
2022-12-23T08:19:59.651Z,7.65
2022-12-23T08:22:26.547Z,6.10
2022-12-23T08:24:53.419Z,6.63
2022-12-23T08:27:20.400Z,6.50
2022-12-23T08:29:47.244Z,6.50
2022-12-23T08:32:14.103Z,5.97
2022-12-23T08:34:40.934Z,6.07
2022-12-23T08:37:07.783Z,5.68
2022-12-23T08:39:34.684Z,6.03
2022-12-23T08:42:01.705Z,5.18
2022-12-23T08:44:28.760Z,5.10
2022-12-23T08:46:56.276Z,5.30
2022-12-23T08:49:23.272Z,33.05
2022-12-23T08:51:50.447Z,36.60
2022-12-23T08:54:19.763Z,35.50
2022-12-23T08:56:46.764Z,32.25
2022-12-23T08:59:19.321Z,30.85
2022-12-23T09:01:47.981Z,28.98
2022-12-23T09:04:15.357Z,26.35
2022-12-23T09:06:43.062Z,24.75
2022-12-23T09:09:12.742Z,22.95
2022-12-23T09:11:39.876Z,21.13
2022-12-23T09:14:08.840Z,19.77
2022-12-23T09:16:36.256Z,18.95
2022-12-23T09:19:03.814Z,19.13
2022-12-23T09:21:30.792Z,17.95
2022-12-23T09:23:57.927Z,17.20
2022-12-23T09:26:28.292Z,15.75
2022-12-23T09:28:55.999Z,16.48
2022-12-23T09:31:24.015Z,16.02
2022-12-23T09:33:52.971Z,18.88
2022-12-23T09:36:20.844Z,24.43
2022-12-23T09:38:47.975Z,24.70
2022-12-23T09:41:33.635Z,22.63
2022-12-23T09:44:26.913Z,19.55
2022-12-23T09:47:19.643Z,19.80
2022-12-23T09:49:54.530Z,16.95
2022-12-23T09:52:50.347Z,17.27
2022-12-23T09:55:18.504Z,16.25
2022-12-23T09:57:56.782Z,15.38
2022-12-23T10:00:24.510Z,15.50
2022-12-23T10:03:20.174Z,14.70
2022-12-23T10:06:13.341Z,14.30
2022-12-23T10:08:44.547Z,13.55
2022-12-23T10:11:21.048Z,13.23
2022-12-23T10:19:00.451Z,17.05
2022-12-23T10:21:50.806Z,35.50
2022-12-23T10:24:23.304Z,31.67
2022-12-23T10:27:01.984Z,29.10
2022-12-23T10:29:34.466Z,24.60
2022-12-23T10:32:36.474Z,23.67
2022-12-23T10:35:26.951Z,20.40
2022-12-23T10:38:03.678Z,20.80
2022-12-23T10:40:55.032Z,19.52
2022-12-23T10:43:33.176Z,17.20
2022-12-23T10:46:21.965Z,17.15
2022-12-23T10:48:51.079Z,14.80
2022-12-23T10:51:47.569Z,14.52
2022-12-23T10:54:29.581Z,13.32
2022-12-23T10:56:56.604Z,11.93
2022-12-23T10:59:27.515Z,11.60
2022-12-23T11:02:12.732Z,11.18
2022-12-23T11:04:47.449Z,12.02
2022-12-23T11:07:43.449Z,10.55
2022-12-23T11:10:17.951Z,10.50
2022-12-23T11:12:50.613Z,9.70
2022-12-23T11:15:29.699Z,9.43
2022-12-23T11:18:01.833Z,9.77
2022-12-23T11:20:29.416Z,9.50
2022-12-23T11:22:59.899Z,9.50
2022-12-23T11:25:30.655Z,9.50
2022-12-23T11:28:19.693Z,8.45
2022-12-23T11:30:58.190Z,8.05
2022-12-23T11:33:28.939Z,7.57
2022-12-23T11:36:12.889Z,8.32
2022-12-23T11:39:14.464Z,7.28
2022-12-23T11:41:52.960Z,7.60
2022-12-23T11:44:19.901Z,7.40
2022-12-23T11:46:47.012Z,7.20
2022-12-23T11:49:26.855Z,7.40
2022-12-23T11:52:05.528Z,6.30
2022-12-23T11:54:33.512Z,6.63
2022-12-23T11:57:03.667Z,6.72
2022-12-23T11:59:44.929Z,6.22
2022-12-23T12:02:20.689Z,6.40
2022-12-23T12:04:58.152Z,6.00
2022-12-23T12:07:26.098Z,5.63
2022-12-23T12:09:53.193Z,5.90
2022-12-23T12:12:21.173Z,5.80
2022-12-23T12:14:54.451Z,6.25
2022-12-23T12:17:27.048Z,5.18
2022-12-23T12:20:05.762Z,5.32
2022-12-23T12:22:39.738Z,5.25
2022-12-23T12:25:19.122Z,4.82
2022-12-23T12:28:05.546Z,4.40
2022-12-23T12:30:37.989Z,4.63
2022-12-23T12:33:19.612Z,4.38
2022-12-23T12:35:53.479Z,4.40
2022-12-23T12:38:34.018Z,4.00
2022-12-23T12:41:15.141Z,4.07
2022-12-23T12:44:05.980Z,3.40
2022-12-23T12:46:51.519Z,3.63
2022-12-23T12:49:25.435Z,3.28
2022-12-23T12:51:55.070Z,3.28
2022-12-23T12:56:58.771Z,3.05
2022-12-23T12:59:27.764Z,2.95
2022-12-23T13:02:32.928Z,2.88
2022-12-23T13:05:17.929Z,2.78
2022-12-23T13:08:07.417Z,2.90
2022-12-23T13:10:52.364Z,2.97
2022-12-23T13:13:19.377Z,2.50
2022-12-23T13:16:04.997Z,2.45
2022-12-23T13:18:47.363Z,2.38
2022-12-23T13:21:40.123Z,2.45
2022-12-23T13:24:29.610Z,2.83
2022-12-23T13:27:14.918Z,3.45
2022-12-23T13:30:03.716Z,4.15
2022-12-23T13:33:01.923Z,7.73
2022-12-23T13:35:36.146Z,5.35
2022-12-23T13:38:31.422Z,5.63
2022-12-23T13:41:17.313Z,7.00
2022-12-23T13:43:47.919Z,6.72
2022-12-23T13:46:41.501Z,9.38
2022-12-23T13:49:20.555Z,6.45
2022-12-23T13:51:55.493Z,6.75
2022-12-23T13:54:28.166Z,4.03
2022-12-23T13:57:26.190Z,4.70
2022-12-23T14:00:18.843Z,3.70
2022-12-23T14:02:51.388Z,2.85
2022-12-23T14:05:37.877Z,3.03
2022-12-23T14:08:20.482Z,3.15
2022-12-23T14:11:01.606Z,6.80
2022-12-23T14:13:40.870Z,5.95
2022-12-23T14:16:28.975Z,5.20
2022-12-23T14:19:01.525Z,5.45
2022-12-23T14:22:07.824Z,4.13
2022-12-23T14:25:02.365Z,3.58
2022-12-23T14:28:05.463Z,4.03
2022-12-23T14:30:42.848Z,5.45
2022-12-23T14:33:18.953Z,3.40
2022-12-23T14:35:45.929Z,3.13
2022-12-23T14:38:15.700Z,2.50
2022-12-23T14:40:42.675Z,2.67
2022-12-23T14:43:29.687Z,3.20
2022-12-23T14:45:58.052Z,3.05
2022-12-23T14:48:34.186Z,2.35
2022-12-23T14:51:10.292Z,2.63
2022-12-23T14:53:53.954Z,3.35
2022-12-23T14:56:26.742Z,2.30
2022-12-23T14:59:05.282Z,2.22
2022-12-23T15:01:32.238Z,1.95
2022-12-23T15:04:01.822Z,2.75
2022-12-23T15:06:46.217Z,5.85
2022-12-23T15:09:28.735Z,2.90
2022-12-23T15:11:57.778Z,3.85
2022-12-23T15:14:38.783Z,3.53
2022-12-23T15:17:24.824Z,3.92
2022-12-23T15:19:51.844Z,3.97
2022-12-23T15:22:28.272Z,5.90
2022-12-23T15:24:58.981Z,2.40
2022-12-23T15:27:35.895Z,3.60
2022-12-23T15:30:03.397Z,2.35
2022-12-23T15:32:30.564Z,2.85
2022-12-23T15:35:05.268Z,1.95
2022-12-23T15:37:32.820Z,3.95
2022-12-23T15:40:11.607Z,3.42
2022-12-23T15:45:30.683Z,3.45
2022-12-23T15:47:57.669Z,3.63
2022-12-23T15:50:24.554Z,3.63
2022-12-23T15:52:54.421Z,3.28
2022-12-23T15:55:24.843Z,3.53
2022-12-23T15:57:52.304Z,2.67
2022-12-23T16:00:25.386Z,3.03
2022-12-23T16:03:03.361Z,5.80
2022-12-23T16:05:32.538Z,4.15
2022-12-23T16:08:16.421Z,3.58
2022-12-23T16:10:56.840Z,14.05
2022-12-23T16:13:23.947Z,5.15
2022-12-23T16:15:50.872Z,5.20
2022-12-23T16:18:32.842Z,6.22
2022-12-23T16:21:02.309Z,2.50
2022-12-23T16:23:38.003Z,3.78
2022-12-23T16:26:04.978Z,2.58
2022-12-23T16:28:42.132Z,4.35
2022-12-23T16:31:10.632Z,4.93
2022-12-23T16:33:49.977Z,3.85
2022-12-23T16:36:23.946Z,3.50
2022-12-23T16:38:57.378Z,4.65
2022-12-23T16:41:24.324Z,6.43
2022-12-23T16:43:52.759Z,4.15
2022-12-23T16:46:21.560Z,6.17
2022-12-23T16:48:50.748Z,5.47
2022-12-23T16:51:20.321Z,6.90
2022-12-23T16:53:51.650Z,6.60
2022-12-23T16:56:20.380Z,3.90
2022-12-23T16:58:47.751Z,4.87
2022-12-23T17:01:24.860Z,4.13
2022-12-23T17:03:52.064Z,7.05
2022-12-23T17:06:20.491Z,3.58
2022-12-23T17:08:48.835Z,5.07
2022-12-23T17:11:18.016Z,3.88
2022-12-23T17:13:45.230Z,5.80
2022-12-23T17:16:20.624Z,5.20
2022-12-23T17:18:50.566Z,5.38
2022-12-23T17:21:30.210Z,5.05
2022-12-23T17:26:36.066Z,2.87
2022-12-23T17:29:04.835Z,3.40
2022-12-23T17:31:32.997Z,4.33
2022-12-23T17:34:00.358Z,8.73
2022-12-23T17:36:27.339Z,6.20
2022-12-23T17:38:54.405Z,4.22
2022-12-23T17:41:29.384Z,4.13
2022-12-23T17:43:56.761Z,4.50
2022-12-23T17:46:24.450Z,5.55
2022-12-23T17:48:51.443Z,4.68
2022-12-23T17:51:22.665Z,4.57
2022-12-23T17:53:56.950Z,3.70
2022-12-23T17:56:24.978Z,4.50
2022-12-23T17:58:52.040Z,4.70
2022-12-23T18:01:25.933Z,5.10
2022-12-23T18:03:54.056Z,3.78
2022-12-23T18:06:21.827Z,4.57
2022-12-23T18:08:49.060Z,5.18
2022-12-23T18:11:21.947Z,6.13
2022-12-23T18:13:50.397Z,5.40
2022-12-23T18:16:17.392Z,5.50
2022-12-23T18:18:46.872Z,6.07
2022-12-23T18:23:45.421Z,5.57
2022-12-23T18:26:15.771Z,4.55
2022-12-23T18:28:43.548Z,4.18
2022-12-23T18:31:21.871Z,6.22
2022-12-23T18:33:48.785Z,7.47
2022-12-23T18:36:30.560Z,7.25
2022-12-23T18:38:57.740Z,7.05
2022-12-23T18:41:25.457Z,5.82
2022-12-23T18:43:53.394Z,5.97
2022-12-23T18:46:20.523Z,8.65
2022-12-23T18:48:48.026Z,6.78
2022-12-23T18:51:16.468Z,6.78
2022-12-23T18:53:43.710Z,6.35
2022-12-23T18:56:14.886Z,6.40
2022-12-23T18:58:41.825Z,6.82
2022-12-23T19:01:15.937Z,6.38
2022-12-23T19:03:43.124Z,6.60
2022-12-23T19:06:15.156Z,6.57
2022-12-23T19:08:42.622Z,6.22
2022-12-23T19:11:18.206Z,5.50
2022-12-23T19:13:45.445Z,5.80
2022-12-23T19:16:15.247Z,6.00
2022-12-23T19:18:42.963Z,6.60
2022-12-23T19:21:09.931Z,6.25
2022-12-23T19:23:37.418Z,6.20
2022-12-23T19:26:06.197Z,11.18
2022-12-23T19:28:33.743Z,8.40
2022-12-23T19:31:00.625Z,8.40
2022-12-23T19:33:27.524Z,6.88
2022-12-23T19:35:54.366Z,8.40
2022-12-23T19:38:21.204Z,8.20
2022-12-23T19:40:57.618Z,6.03
2022-12-23T19:43:24.520Z,5.93
2022-12-23T19:48:43.827Z,7.20
2022-12-23T19:51:13.235Z,5.65
2022-12-23T19:53:41.946Z,6.93
2022-12-23T19:56:16.049Z,7.05
2022-12-23T19:58:43.925Z,5.65
2022-12-23T20:01:14.375Z,5.03
2022-12-23T20:03:42.452Z,6.47
2022-12-23T20:06:17.875Z,6.00
2022-12-23T20:08:45.102Z,5.88
2022-12-23T20:11:19.377Z,5.70
2022-12-23T20:13:47.019Z,6.85
2022-12-23T20:16:14.061Z,6.72
2022-12-23T20:18:41.030Z,5.88
2022-12-23T20:21:08.132Z,5.70
2022-12-23T20:23:35.623Z,6.25
2022-12-23T20:26:03.301Z,5.95
2022-12-23T20:28:30.408Z,7.20
2022-12-23T20:31:07.467Z,7.43
2022-12-23T20:36:06.712Z,6.05
2022-12-23T20:38:39.013Z,5.43
2022-12-23T20:41:07.077Z,5.95
2022-12-23T20:43:34.853Z,7.13
2022-12-23T20:46:05.867Z,7.28
2022-12-23T20:48:34.502Z,5.68
2022-12-23T20:51:25.403Z,8.37
2022-12-23T20:53:54.736Z,6.57
2022-12-23T20:56:22.358Z,5.63
2022-12-23T20:58:55.279Z,6.65
2022-12-23T21:01:23.063Z,5.35
2022-12-23T21:03:50.165Z,8.18
2022-12-23T21:06:17.398Z,8.50
2022-12-23T21:08:44.275Z,4.28
2022-12-23T21:11:11.366Z,5.80
2022-12-23T21:13:40.473Z,5.53
2022-12-23T21:16:10.240Z,6.30
2022-12-23T21:21:06.557Z,7.53
2022-12-23T21:23:39.253Z,6.45
2022-12-23T21:26:18.007Z,4.75
2022-12-23T21:28:48.904Z,5.70
2022-12-23T21:31:19.270Z,5.88
2022-12-23T21:33:47.505Z,5.30
2022-12-23T21:36:20.305Z,7.00
2022-12-23T21:38:48.528Z,7.75
2022-12-23T21:41:20.179Z,13.15
2022-12-23T21:43:47.796Z,12.55
2022-12-23T21:46:17.948Z,12.75
2022-12-23T21:48:44.901Z,12.70
2022-12-23T21:51:17.779Z,10.68
2022-12-23T21:53:46.644Z,10.60
2022-12-23T21:56:18.193Z,10.23
2022-12-23T21:58:45.427Z,10.68
2022-12-23T22:01:16.050Z,10.38
2022-12-23T22:03:44.040Z,8.52
2022-12-23T22:06:14.175Z,9.40
2022-12-23T22:08:41.357Z,9.57
2022-12-23T22:11:10.213Z,9.10
2022-12-23T22:13:37.505Z,10.00
2022-12-23T22:16:05.492Z,7.32
2022-12-23T22:18:32.418Z,6.95
2022-12-23T22:20:59.279Z,9.18
2022-12-23T22:23:26.168Z,7.05
2022-12-23T22:25:56.347Z,6.97
2022-12-23T22:28:23.261Z,7.75
2022-12-23T22:30:50.147Z,7.47
2022-12-23T22:33:17.009Z,7.10
2022-12-23T22:35:44.040Z,7.45
2022-12-23T22:38:10.894Z,7.32
2022-12-23T22:40:37.740Z,6.22
2022-12-23T22:43:04.629Z,6.70
2022-12-23T22:45:31.489Z,14.25
2022-12-23T22:47:58.572Z,11.88
2022-12-23T22:50:25.545Z,14.45
2022-12-23T22:52:52.504Z,12.05
2022-12-23T22:55:19.424Z,13.93
2022-12-23T22:57:46.354Z,11.50
2022-12-23T23:00:13.628Z,10.50
2022-12-23T23:02:40.551Z,10.85
2022-12-23T23:05:12.702Z,18.95
2022-12-23T23:07:40.153Z,18.85
2022-12-23T23:10:07.764Z,15.27
2022-12-23T23:12:34.674Z,18.17
2022-12-23T23:15:01.590Z,16.52
2022-12-23T23:17:29.045Z,10.68
2022-12-23T23:19:56.011Z,10.13
2022-12-23T23:22:24.013Z,10.18
2022-12-23T23:24:51.679Z,11.77
2022-12-23T23:27:18.911Z,11.52
2022-12-23T23:29:45.895Z,9.55
2022-12-23T23:32:13.029Z,8.93
2022-12-23T23:34:40.693Z,8.35
2022-12-23T23:37:07.665Z,8.55
2022-12-23T23:39:34.598Z,8.23
2022-12-23T23:42:01.675Z,8.70
2022-12-23T23:44:28.657Z,9.02
2022-12-23T23:46:55.743Z,8.95
2022-12-23T23:49:23.227Z,7.32
2022-12-23T23:51:50.373Z,7.50
2022-12-23T23:54:17.658Z,6.78
2022-12-23T23:56:44.559Z,9.55
2022-12-23T23:59:11.436Z,7.70
